sensor_id;sensor_type;location;lat;lon;timestamp;P1;durP1;ratioP1;P2;durP2;ratioP2
54823;SDS011;40724;53.196;5.980;2023-08-06T00:02:05;9.38;;;6.35;;
54823;SDS011;40724;53.196;5.980;2023-08-06T00:04:31;9.90;;;6.63;;
54823;SDS011;40724;53.196;5.980;2023-08-06T00:06:57;7.45;;;5.50;;
54823;SDS011;40724;53.196;5.980;2023-08-06T00:09:23;8.18;;;6.15;;
54823;SDS011;40724;53.196;5.980;2023-08-06T00:11:50;9.00;;;6.32;;
54823;SDS011;40724;53.196;5.980;2023-08-06T00:14:16;9.07;;;6.47;;
54823;SDS011;40724;53.196;5.980;2023-08-06T00:16:43;10.25;;;5.97;;
54823;SDS011;40724;53.196;5.980;2023-08-06T00:19:09;8.45;;;5.88;;
54823;SDS011;40724;53.196;5.980;2023-08-06T00:21:35;8.82;;;6.20;;
54823;SDS011;40724;53.196;5.980;2023-08-06T00:24:01;9.13;;;6.50;;
54823;SDS011;40724;53.196;5.980;2023-08-06T00:26:27;8.00;;;5.90;;
54823;SDS011;40724;53.196;5.980;2023-08-06T00:28:53;12.40;;;6.97;;
54823;SDS011;40724;53.196;5.980;2023-08-06T00:31:20;7.38;;;5.20;;
54823;SDS011;40724;53.196;5.980;2023-08-06T00:33:46;7.88;;;5.75;;
54823;SDS011;40724;53.196;5.980;2023-08-06T00:36:12;7.32;;;6.07;;
54823;SDS011;40724;53.196;5.980;2023-08-06T00:38:38;7.47;;;5.70;;
54823;SDS011;40724;53.196;5.980;2023-08-06T00:41:04;8.68;;;5.35;;
54823;SDS011;40724;53.196;5.980;2023-08-06T00:43:30;9.45;;;5.93;;
54823;SDS011;40724;53.196;5.980;2023-08-06T00:45:56;7.80;;;5.78;;
54823;SDS011;40724;53.196;5.980;2023-08-06T00:48:22;6.50;;;5.47;;
54823;SDS011;40724;53.196;5.980;2023-08-06T00:50:49;8.40;;;5.47;;
54823;SDS011;40724;53.196;5.980;2023-08-06T00:53:15;7.68;;;5.65;;
54823;SDS011;40724;53.196;5.980;2023-08-06T00:55:42;8.43;;;6.20;;
54823;SDS011;40724;53.196;5.980;2023-08-06T00:58:10;6.53;;;4.82;;
54823;SDS011;40724;53.196;5.980;2023-08-06T01:00:36;7.55;;;5.63;;
54823;SDS011;40724;53.196;5.980;2023-08-06T01:03:03;6.97;;;5.40;;
54823;SDS011;40724;53.196;5.980;2023-08-06T01:05:29;8.63;;;6.38;;
54823;SDS011;40724;53.196;5.980;2023-08-06T01:13:06;9.68;;;4.82;;
54823;SDS011;40724;53.196;5.980;2023-08-06T01:15:45;11.48;;;6.88;;
54823;SDS011;40724;53.196;5.980;2023-08-06T01:18:12;9.45;;;5.75;;
54823;SDS011;40724;53.196;5.980;2023-08-06T01:20:38;7.60;;;5.90;;
54823;SDS011;40724;53.196;5.980;2023-08-06T01:23:05;9.70;;;5.97;;
54823;SDS011;40724;53.196;5.980;2023-08-06T01:29:06;8.40;;;6.13;;
54823;SDS011;40724;53.196;5.980;2023-08-06T01:31:04;8.05;;;6.50;;
54823;SDS011;40724;53.196;5.980;2023-08-06T01:33:32;9.80;;;6.25;;
54823;SDS011;40724;53.196;5.980;2023-08-06T01:35:58;8.48;;;6.85;;
54823;SDS011;40724;53.196;5.980;2023-08-06T01:38:25;7.97;;;6.32;;
54823;SDS011;40724;53.196;5.980;2023-08-06T01:40:53;7.25;;;5.88;;
54823;SDS011;40724;53.196;5.980;2023-08-06T01:43:19;7.72;;;6.35;;
54823;SDS011;40724;53.196;5.980;2023-08-06T01:45:45;9.40;;;6.50;;
54823;SDS011;40724;53.196;5.980;2023-08-06T01:48:11;7.18;;;6.13;;
54823;SDS011;40724;53.196;5.980;2023-08-06T01:50:37;8.32;;;6.03;;
54823;SDS011;40724;53.196;5.980;2023-08-06T01:53:03;8.63;;;6.38;;
54823;SDS011;40724;53.196;5.980;2023-08-06T01:55:29;9.73;;;6.45;;
54823;SDS011;40724;53.196;5.980;2023-08-06T01:57:56;10.90;;;6.93;;
54823;SDS011;40724;53.196;5.980;2023-08-06T02:00:22;7.75;;;5.80;;
54823;SDS011;40724;53.196;5.980;2023-08-06T02:02:49;9.60;;;6.43;;
54823;SDS011;40724;53.196;5.980;2023-08-06T02:05:15;9.98;;;6.75;;
54823;SDS011;40724;53.196;5.980;2023-08-06T02:07:42;6.72;;;5.90;;
54823;SDS011;40724;53.196;5.980;2023-08-06T02:10:08;8.18;;;6.35;;
54823;SDS011;40724;53.196;5.980;2023-08-06T02:12:34;8.93;;;6.43;;
54823;SDS011;40724;53.196;5.980;2023-08-06T02:15:00;8.85;;;7.22;;
54823;SDS011;40724;53.196;5.980;2023-08-06T02:17:26;8.10;;;5.85;;
54823;SDS011;40724;53.196;5.980;2023-08-06T02:19:52;8.77;;;6.00;;
54823;SDS011;40724;53.196;5.980;2023-08-06T02:22:18;8.85;;;6.57;;
54823;SDS011;40724;53.196;5.980;2023-08-06T02:24:50;8.97;;;6.33;;
54823;SDS011;40724;53.196;5.980;2023-08-06T02:27:16;8.00;;;6.22;;
54823;SDS011;40724;53.196;5.980;2023-08-06T02:29:42;8.43;;;6.38;;
54823;SDS011;40724;53.196;5.980;2023-08-06T02:32:09;9.38;;;6.18;;
54823;SDS011;40724;53.196;5.980;2023-08-06T02:34:36;7.30;;;5.35;;
54823;SDS011;40724;53.196;5.980;2023-08-06T02:37:02;7.18;;;5.93;;
54823;SDS011;40724;53.196;5.980;2023-08-06T02:39:28;7.45;;;5.85;;
54823;SDS011;40724;53.196;5.980;2023-08-06T02:41:54;9.73;;;6.28;;
54823;SDS011;40724;53.196;5.980;2023-08-06T02:44:20;7.13;;;5.50;;
54823;SDS011;40724;53.196;5.980;2023-08-06T02:46:46;9.05;;;5.68;;
54823;SDS011;40724;53.196;5.980;2023-08-06T02:49:13;7.07;;;5.28;;
54823;SDS011;40724;53.196;5.980;2023-08-06T02:51:39;7.88;;;5.07;;
54823;SDS011;40724;53.196;5.980;2023-08-06T02:54:05;12.02;;;5.93;;
54823;SDS011;40724;53.196;5.980;2023-08-06T02:56:31;6.65;;;5.13;;
54823;SDS011;40724;53.196;5.980;2023-08-06T02:58:57;8.57;;;5.50;;
54823;SDS011;40724;53.196;5.980;2023-08-06T03:01:23;6.95;;;6.13;;
54823;SDS011;40724;53.196;5.980;2023-08-06T03:03:51;10.10;;;7.38;;
54823;SDS011;40724;53.196;5.980;2023-08-06T03:06:18;11.85;;;6.45;;
54823;SDS011;40724;53.196;5.980;2023-08-06T03:08:44;7.68;;;6.15;;
54823;SDS011;40724;53.196;5.980;2023-08-06T03:11:10;7.00;;;5.40;;
54823;SDS011;40724;53.196;5.980;2023-08-06T03:13:36;8.75;;;6.00;;
54823;SDS011;40724;53.196;5.980;2023-08-06T03:16:02;12.18;;;6.18;;
54823;SDS011;40724;53.196;5.980;2023-08-06T03:18:28;11.77;;;6.28;;
54823;SDS011;40724;53.196;5.980;2023-08-06T03:20:54;9.60;;;6.50;;
54823;SDS011;40724;53.196;5.980;2023-08-06T03:23:22;10.90;;;6.82;;
54823;SDS011;40724;53.196;5.980;2023-08-06T03:25:48;8.50;;;6.03;;
54823;SDS011;40724;53.196;5.980;2023-08-06T03:28:14;9.38;;;6.22;;
54823;SDS011;40724;53.196;5.980;2023-08-06T03:30:40;8.20;;;6.57;;
54823;SDS011;40724;53.196;5.980;2023-08-06T03:33:06;10.07;;;6.53;;
54823;SDS011;40724;53.196;5.980;2023-08-06T03:35:32;10.98;;;6.78;;
54823;SDS011;40724;53.196;5.980;2023-08-06T03:37:58;11.43;;;6.45;;
54823;SDS011;40724;53.196;5.980;2023-08-06T03:40:25;10.02;;;7.75;;
54823;SDS011;40724;53.196;5.980;2023-08-06T03:42:51;10.15;;;7.30;;
54823;SDS011;40724;53.196;5.980;2023-08-06T03:45:17;8.88;;;7.40;;
54823;SDS011;40724;53.196;5.980;2023-08-06T03:47:43;10.50;;;7.07;;
54823;SDS011;40724;53.196;5.980;2023-08-06T03:50:09;9.07;;;6.75;;
54823;SDS011;40724;53.196;5.980;2023-08-06T03:52:35;9.63;;;6.78;;
54823;SDS011;40724;53.196;5.980;2023-08-06T03:55:01;10.05;;;7.40;;
54823;SDS011;40724;53.196;5.980;2023-08-06T03:57:28;9.43;;;6.22;;
54823;SDS011;40724;53.196;5.980;2023-08-06T03:59:54;10.38;;;7.43;;
54823;SDS011;40724;53.196;5.980;2023-08-06T04:02:20;9.48;;;7.03;;
54823;SDS011;40724;53.196;5.980;2023-08-06T04:04:48;8.60;;;6.68;;
54823;SDS011;40724;53.196;5.980;2023-08-06T04:07:14;10.15;;;7.07;;
54823;SDS011;40724;53.196;5.980;2023-08-06T04:09:54;8.50;;;7.60;;
54823;SDS011;40724;53.196;5.980;2023-08-06T04:12:20;13.25;;;7.70;;
54823;SDS011;40724;53.196;5.980;2023-08-06T04:14:46;8.90;;;6.35;;
54823;SDS011;40724;53.196;5.980;2023-08-06T04:17:13;9.20;;;7.57;;
54823;SDS011;40724;53.196;5.980;2023-08-06T04:19:39;9.52;;;7.68;;
54823;SDS011;40724;53.196;5.980;2023-08-06T04:22:05;10.38;;;7.05;;
54823;SDS011;40724;53.196;5.980;2023-08-06T04:24:32;10.63;;;7.13;;
54823;SDS011;40724;53.196;5.980;2023-08-06T04:26:58;10.15;;;6.97;;
54823;SDS011;40724;53.196;5.980;2023-08-06T04:29:24;11.23;;;7.63;;
54823;SDS011;40724;53.196;5.980;2023-08-06T04:31:50;10.57;;;7.20;;
54823;SDS011;40724;53.196;5.980;2023-08-06T04:34:16;13.43;;;7.75;;
54823;SDS011;40724;53.196;5.980;2023-08-06T04:36:42;8.40;;;6.82;;
54823;SDS011;40724;53.196;5.980;2023-08-06T04:39:08;10.52;;;7.15;;
54823;SDS011;40724;53.196;5.980;2023-08-06T04:41:34;8.25;;;6.82;;
54823;SDS011;40724;53.196;5.980;2023-08-06T04:44:00;12.70;;;8.43;;
54823;SDS011;40724;53.196;5.980;2023-08-06T04:46:27;10.20;;;7.28;;
54823;SDS011;40724;53.196;5.980;2023-08-06T04:48:53;9.45;;;7.85;;
54823;SDS011;40724;53.196;5.980;2023-08-06T04:51:19;8.68;;;7.40;;
54823;SDS011;40724;53.196;5.980;2023-08-06T04:53:45;10.25;;;7.63;;
54823;SDS011;40724;53.196;5.980;2023-08-06T04:56:11;9.57;;;7.55;;
54823;SDS011;40724;53.196;5.980;2023-08-06T04:58:37;10.23;;;7.05;;
54823;SDS011;40724;53.196;5.980;2023-08-06T05:01:03;9.00;;;7.22;;
54823;SDS011;40724;53.196;5.980;2023-08-06T05:03:29;11.57;;;7.90;;
54823;SDS011;40724;53.196;5.980;2023-08-06T05:05:56;10.38;;;7.80;;
54823;SDS011;40724;53.196;5.980;2023-08-06T05:08:22;10.70;;;8.23;;
54823;SDS011;40724;53.196;5.980;2023-08-06T05:10:48;8.90;;;7.70;;
54823;SDS011;40724;53.196;5.980;2023-08-06T05:13:14;10.60;;;7.55;;
54823;SDS011;40724;53.196;5.980;2023-08-06T05:15:41;9.05;;;7.43;;
54823;SDS011;40724;53.196;5.980;2023-08-06T05:18:08;12.32;;;8.32;;
54823;SDS011;40724;53.196;5.980;2023-08-06T05:20:41;13.50;;;7.20;;
54823;SDS011;40724;53.196;5.980;2023-08-06T05:23:08;12.07;;;7.85;;
54823;SDS011;40724;53.196;5.980;2023-08-06T05:25:34;10.30;;;7.65;;
54823;SDS011;40724;53.196;5.980;2023-08-06T05:28:01;11.25;;;7.72;;
54823;SDS011;40724;53.196;5.980;2023-08-06T05:30:27;10.10;;;7.55;;
54823;SDS011;40724;53.196;5.980;2023-08-06T05:32:54;8.73;;;7.40;;
54823;SDS011;40724;53.196;5.980;2023-08-06T05:35:20;12.80;;;8.15;;
54823;SDS011;40724;53.196;5.980;2023-08-06T05:37:47;12.95;;;8.45;;
54823;SDS011;40724;53.196;5.980;2023-08-06T05:40:13;12.98;;;8.00;;
54823;SDS011;40724;53.196;5.980;2023-08-06T05:42:40;9.70;;;7.47;;
54823;SDS011;40724;53.196;5.980;2023-08-06T05:45:06;9.50;;;7.18;;
54823;SDS011;40724;53.196;5.980;2023-08-06T05:47:32;8.23;;;6.78;;
54823;SDS011;40724;53.196;5.980;2023-08-06T05:49:59;8.63;;;6.78;;
54823;SDS011;40724;53.196;5.980;2023-08-06T05:52:25;9.68;;;7.28;;
54823;SDS011;40724;53.196;5.980;2023-08-06T05:54:51;12.65;;;7.75;;
54823;SDS011;40724;53.196;5.980;2023-08-06T05:57:17;8.77;;;7.72;;
54823;SDS011;40724;53.196;5.980;2023-08-06T05:59:43;10.00;;;8.25;;
54823;SDS011;40724;53.196;5.980;2023-08-06T06:02:10;10.10;;;7.50;;
54823;SDS011;40724;53.196;5.980;2023-08-06T06:04:36;9.75;;;7.53;;
54823;SDS011;40724;53.196;5.980;2023-08-06T06:07:03;10.23;;;7.68;;
54823;SDS011;40724;53.196;5.980;2023-08-06T06:09:29;8.43;;;7.32;;
54823;SDS011;40724;53.196;5.980;2023-08-06T06:11:55;8.15;;;7.28;;
54823;SDS011;40724;53.196;5.980;2023-08-06T06:14:21;11.43;;;7.63;;
54823;SDS011;40724;53.196;5.980;2023-08-06T06:16:47;8.93;;;7.35;;
54823;SDS011;40724;53.196;5.980;2023-08-06T06:19:13;9.43;;;7.28;;
54823;SDS011;40724;53.196;5.980;2023-08-06T06:21:39;9.30;;;7.00;;
54823;SDS011;40724;53.196;5.980;2023-08-06T06:24:05;9.68;;;7.90;;
54823;SDS011;40724;53.196;5.980;2023-08-06T06:26:33;12.45;;;7.35;;
54823;SDS011;40724;53.196;5.980;2023-08-06T06:28:59;10.65;;;7.20;;
54823;SDS011;40724;53.196;5.980;2023-08-06T06:31:25;7.85;;;7.03;;
54823;SDS011;40724;53.196;5.980;2023-08-06T06:33:51;9.10;;;6.78;;
54823;SDS011;40724;53.196;5.980;2023-08-06T06:36:19;10.05;;;7.30;;
54823;SDS011;40724;53.196;5.980;2023-08-06T06:38:46;14.15;;;8.32;;
54823;SDS011;40724;53.196;5.980;2023-08-06T06:41:13;12.80;;;7.93;;
54823;SDS011;40724;53.196;5.980;2023-08-06T06:43:39;9.90;;;7.13;;
54823;SDS011;40724;53.196;5.980;2023-08-06T06:46:05;10.18;;;7.35;;
54823;SDS011;40724;53.196;5.980;2023-08-06T06:48:32;8.65;;;6.35;;
54823;SDS011;40724;53.196;5.980;2023-08-06T06:50:59;9.65;;;6.68;;
54823;SDS011;40724;53.196;5.980;2023-08-06T06:53:25;8.43;;;6.90;;
54823;SDS011;40724;53.196;5.980;2023-08-06T06:55:55;8.85;;;7.00;;
54823;SDS011;40724;53.196;5.980;2023-08-06T06:58:22;16.50;;;8.05;;
54823;SDS011;40724;53.196;5.980;2023-08-06T07:00:48;6.93;;;5.53;;
54823;SDS011;40724;53.196;5.980;2023-08-06T07:03:14;9.45;;;5.75;;
54823;SDS011;40724;53.196;5.980;2023-08-06T07:05:41;8.65;;;5.25;;
54823;SDS011;40724;53.196;5.980;2023-08-06T07:08:08;7.65;;;4.68;;
54823;SDS011;40724;53.196;5.980;2023-08-06T07:10:33;8.40;;;7.07;;
54823;SDS011;40724;53.196;5.980;2023-08-06T07:12:59;7.30;;;5.03;;
54823;SDS011;40724;53.196;5.980;2023-08-06T07:15:25;7.13;;;5.35;;
54823;SDS011;40724;53.196;5.980;2023-08-06T07:17:51;6.28;;;4.97;;
54823;SDS011;40724;53.196;5.980;2023-08-06T07:20:17;6.07;;;4.30;;
54823;SDS011;40724;53.196;5.980;2023-08-06T07:22:43;5.97;;;4.88;;
54823;SDS011;40724;53.196;5.980;2023-08-06T07:25:09;6.82;;;5.55;;
54823;SDS011;40724;53.196;5.980;2023-08-06T07:27:35;6.85;;;4.85;;
54823;SDS011;40724;53.196;5.980;2023-08-06T07:30:01;7.43;;;4.80;;
54823;SDS011;40724;53.196;5.980;2023-08-06T07:32:26;8.63;;;4.70;;
54823;SDS011;40724;53.196;5.980;2023-08-06T07:34:55;5.50;;;3.78;;
54823;SDS011;40724;53.196;5.980;2023-08-06T07:37:24;4.82;;;3.97;;
54823;SDS011;40724;53.196;5.980;2023-08-06T07:39:50;6.53;;;4.28;;
54823;SDS011;40724;53.196;5.980;2023-08-06T07:42:16;6.38;;;4.55;;
54823;SDS011;40724;53.196;5.980;2023-08-06T07:44:49;6.30;;;4.75;;
54823;SDS011;40724;53.196;5.980;2023-08-06T07:47:17;6.45;;;4.00;;
54823;SDS011;40724;53.196;5.980;2023-08-06T07:49:43;5.38;;;4.25;;
54823;SDS011;40724;53.196;5.980;2023-08-06T07:52:09;4.70;;;3.50;;
54823;SDS011;40724;53.196;5.980;2023-08-06T07:54:36;4.45;;;3.78;;
54823;SDS011;40724;53.196;5.980;2023-08-06T07:57:02;5.25;;;3.55;;
54823;SDS011;40724;53.196;5.980;2023-08-06T07:59:28;5.38;;;4.35;;
54823;SDS011;40724;53.196;5.980;2023-08-06T08:01:57;5.63;;;4.68;;
54823;SDS011;40724;53.196;5.980;2023-08-06T08:04:23;5.30;;;3.55;;
54823;SDS011;40724;53.196;5.980;2023-08-06T08:06:49;4.53;;;4.07;;
54823;SDS011;40724;53.196;5.980;2023-08-06T08:09:15;5.50;;;3.53;;
54823;SDS011;40724;53.196;5.980;2023-08-06T08:11:41;5.43;;;3.30;;
54823;SDS011;40724;53.196;5.980;2023-08-06T08:14:07;6.03;;;4.15;;
54823;SDS011;40724;53.196;5.980;2023-08-06T08:16:33;5.40;;;4.28;;
54823;SDS011;40724;53.196;5.980;2023-08-06T08:18:59;4.47;;;3.33;;
54823;SDS011;40724;53.196;5.980;2023-08-06T08:21:25;4.93;;;3.10;;
54823;SDS011;40724;53.196;5.980;2023-08-06T08:23:51;5.28;;;3.22;;
54823;SDS011;40724;53.196;5.980;2023-08-06T08:26:17;4.72;;;3.58;;
54823;SDS011;40724;53.196;5.980;2023-08-06T08:28:43;8.75;;;4.00;;
54823;SDS011;40724;53.196;5.980;2023-08-06T08:31:09;6.05;;;3.90;;
54823;SDS011;40724;53.196;5.980;2023-08-06T08:33:36;5.13;;;3.42;;
54823;SDS011;40724;53.196;5.980;2023-08-06T08:36:05;4.88;;;3.42;;
54823;SDS011;40724;53.196;5.980;2023-08-06T08:38:31;4.47;;;3.55;;
54823;SDS011;40724;53.196;5.980;2023-08-06T08:40:56;5.47;;;3.67;;
54823;SDS011;40724;53.196;5.980;2023-08-06T08:43:23;6.53;;;4.13;;
54823;SDS011;40724;53.196;5.980;2023-08-06T08:45:52;4.32;;;3.38;;
54823;SDS011;40724;53.196;5.980;2023-08-06T08:48:24;4.70;;;3.25;;
54823;SDS011;40724;53.196;5.980;2023-08-06T08:50:50;5.60;;;3.60;;
54823;SDS011;40724;53.196;5.980;2023-08-06T08:53:16;6.32;;;3.92;;
54823;SDS011;40724;53.196;5.980;2023-08-06T08:55:43;5.32;;;3.70;;
54823;SDS011;40724;53.196;5.980;2023-08-06T08:58:14;3.90;;;3.10;;
54823;SDS011;40724;53.196;5.980;2023-08-06T09:00:41;4.55;;;3.03;;
54823;SDS011;40724;53.196;5.980;2023-08-06T09:03:08;4.05;;;3.08;;
54823;SDS011;40724;53.196;5.980;2023-08-06T09:05:34;6.75;;;2.83;;
54823;SDS011;40724;53.196;5.980;2023-08-06T09:08:02;6.85;;;3.50;;
54823;SDS011;40724;53.196;5.980;2023-08-06T09:10:29;3.90;;;2.85;;
54823;SDS011;40724;53.196;5.980;2023-08-06T09:12:55;4.28;;;3.00;;
54823;SDS011;40724;53.196;5.980;2023-08-06T09:15:26;5.00;;;3.17;;
54823;SDS011;40724;53.196;5.980;2023-08-06T09:17:53;4.88;;;2.78;;
54823;SDS011;40724;53.196;5.980;2023-08-06T09:20:19;4.78;;;3.30;;
54823;SDS011;40724;53.196;5.980;2023-08-06T09:22:45;4.65;;;3.03;;
54823;SDS011;40724;53.196;5.980;2023-08-06T09:25:14;4.78;;;2.53;;
54823;SDS011;40724;53.196;5.980;2023-08-06T09:27:47;3.58;;;2.40;;
54823;SDS011;40724;53.196;5.980;2023-08-06T09:30:13;4.25;;;3.20;;
54823;SDS011;40724;53.196;5.980;2023-08-06T09:32:55;3.90;;;2.50;;
54823;SDS011;40724;53.196;5.980;2023-08-06T09:35:21;3.28;;;2.50;;
54823;SDS011;40724;53.196;5.980;2023-08-06T09:37:47;3.40;;;2.67;;
54823;SDS011;40724;53.196;5.980;2023-08-06T09:40:29;5.30;;;3.08;;
54823;SDS011;40724;53.196;5.980;2023-08-06T09:42:56;3.90;;;2.50;;
54823;SDS011;40724;53.196;5.980;2023-08-06T09:45:28;3.92;;;2.72;;
54823;SDS011;40724;53.196;5.980;2023-08-06T09:47:57;3.85;;;2.55;;
54823;SDS011;40724;53.196;5.980;2023-08-06T09:50:27;3.92;;;2.35;;
54823;SDS011;40724;53.196;5.980;2023-08-06T09:52:55;3.60;;;2.20;;
54823;SDS011;40724;53.196;5.980;2023-08-06T09:55:22;2.90;;;2.30;;
54823;SDS011;40724;53.196;5.980;2023-08-06T09:57:50;2.72;;;1.88;;
54823;SDS011;40724;53.196;5.980;2023-08-06T10:00:16;5.22;;;2.30;;
54823;SDS011;40724;53.196;5.980;2023-08-06T10:02:43;3.70;;;2.45;;
54823;SDS011;40724;53.196;5.980;2023-08-06T10:05:09;3.35;;;2.15;;
54823;SDS011;40724;53.196;5.980;2023-08-06T10:07:36;3.20;;;2.35;;
54823;SDS011;40724;53.196;5.980;2023-08-06T10:10:04;2.55;;;1.80;;
54823;SDS011;40724;53.196;5.980;2023-08-06T10:12:37;3.92;;;2.38;;
54823;SDS011;40724;53.196;5.980;2023-08-06T10:15:06;3.17;;;2.22;;
54823;SDS011;40724;53.196;5.980;2023-08-06T10:17:32;7.55;;;2.78;;
54823;SDS011;40724;53.196;5.980;2023-08-06T10:20:00;2.80;;;1.75;;
54823;SDS011;40724;53.196;5.980;2023-08-06T10:22:26;4.32;;;2.55;;
54823;SDS011;40724;53.196;5.980;2023-08-06T10:24:53;2.78;;;1.90;;
54823;SDS011;40724;53.196;5.980;2023-08-06T10:27:28;3.33;;;2.15;;
54823;SDS011;40724;53.196;5.980;2023-08-06T10:32:47;3.35;;;1.65;;
54823;SDS011;40724;53.196;5.980;2023-08-06T10:40:36;3.65;;;2.20;;
54823;SDS011;40724;53.196;5.980;2023-08-06T10:43:03;3.38;;;2.13;;
54823;SDS011;40724;53.196;5.980;2023-08-06T10:45:34;4.25;;;2.00;;
54823;SDS011;40724;53.196;5.980;2023-08-06T10:48:00;2.92;;;2.30;;
54823;SDS011;40724;53.196;5.980;2023-08-06T10:50:26;4.72;;;2.03;;
54823;SDS011;40724;53.196;5.980;2023-08-06T10:52:52;5.55;;;2.47;;
54823;SDS011;40724;53.196;5.980;2023-08-06T10:55:22;4.00;;;2.40;;
54823;SDS011;40724;53.196;5.980;2023-08-06T10:57:49;3.30;;;2.60;;
54823;SDS011;40724;53.196;5.980;2023-08-06T11:00:15;5.65;;;2.95;;
54823;SDS011;40724;53.196;5.980;2023-08-06T11:02:41;6.28;;;2.75;;
54823;SDS011;40724;53.196;5.980;2023-08-06T11:05:09;3.95;;;2.60;;
54823;SDS011;40724;53.196;5.980;2023-08-06T11:07:36;4.93;;;2.35;;
54823;SDS011;40724;53.196;5.980;2023-08-06T11:10:03;3.50;;;2.33;;
54823;SDS011;40724;53.196;5.980;2023-08-06T11:12:30;6.20;;;2.75;;
54823;SDS011;40724;53.196;5.980;2023-08-06T11:14:56;5.85;;;2.92;;
54823;SDS011;40724;53.196;5.980;2023-08-06T11:17:22;3.35;;;2.25;;
54823;SDS011;40724;53.196;5.980;2023-08-06T11:19:48;5.63;;;3.15;;
54823;SDS011;40724;53.196;5.980;2023-08-06T11:22:15;5.10;;;2.65;;
54823;SDS011;40724;53.196;5.980;2023-08-06T11:24:42;5.35;;;2.50;;
54823;SDS011;40724;53.196;5.980;2023-08-06T11:27:12;3.60;;;2.90;;
54823;SDS011;40724;53.196;5.980;2023-08-06T11:29:38;4.53;;;3.05;;
54823;SDS011;40724;53.196;5.980;2023-08-06T11:32:05;4.32;;;2.78;;
54823;SDS011;40724;53.196;5.980;2023-08-06T11:34:31;5.18;;;2.95;;
54823;SDS011;40724;53.196;5.980;2023-08-06T11:36:57;4.60;;;2.80;;
54823;SDS011;40724;53.196;5.980;2023-08-06T11:39:23;4.20;;;2.70;;
54823;SDS011;40724;53.196;5.980;2023-08-06T11:41:50;3.72;;;2.75;;
54823;SDS011;40724;53.196;5.980;2023-08-06T11:44:18;5.20;;;2.70;;
54823;SDS011;40724;53.196;5.980;2023-08-06T11:46:54;3.45;;;2.60;;
54823;SDS011;40724;53.196;5.980;2023-08-06T11:49:40;3.95;;;2.60;;
54823;SDS011;40724;53.196;5.980;2023-08-06T11:52:19;4.13;;;2.53;;
54823;SDS011;40724;53.196;5.980;2023-08-06T11:55:05;3.50;;;2.50;;
54823;SDS011;40724;53.196;5.980;2023-08-06T11:57:33;4.35;;;3.00;;
54823;SDS011;40724;53.196;5.980;2023-08-06T12:00:03;4.85;;;2.60;;
54823;SDS011;40724;53.196;5.980;2023-08-06T12:02:31;8.98;;;3.20;;
54823;SDS011;40724;53.196;5.980;2023-08-06T12:05:18;2.85;;;2.05;;
54823;SDS011;40724;53.196;5.980;2023-08-06T12:07:57;3.67;;;2.53;;
54823;SDS011;40724;53.196;5.980;2023-08-06T12:10:24;3.63;;;2.50;;
54823;SDS011;40724;53.196;5.980;2023-08-06T12:12:50;2.78;;;2.17;;
54823;SDS011;40724;53.196;5.980;2023-08-06T12:15:17;2.70;;;2.20;;
54823;SDS011;40724;53.196;5.980;2023-08-06T12:17:43;3.25;;;2.55;;
54823;SDS011;40724;53.196;5.980;2023-08-06T12:20:09;3.47;;;2.53;;
54823;SDS011;40724;53.196;5.980;2023-08-06T12:22:35;5.50;;;3.08;;
54823;SDS011;40724;53.196;5.980;2023-08-06T12:25:12;3.40;;;2.53;;
54823;SDS011;40724;53.196;5.980;2023-08-06T12:27:39;3.45;;;2.35;;
54823;SDS011;40724;53.196;5.980;2023-08-06T12:30:06;3.78;;;2.60;;
54823;SDS011;40724;53.196;5.980;2023-08-06T12:32:33;3.88;;;2.58;;
54823;SDS011;40724;53.196;5.980;2023-08-06T12:34:59;4.07;;;2.70;;
54823;SDS011;40724;53.196;5.980;2023-08-06T12:37:25;5.95;;;3.38;;
54823;SDS011;40724;53.196;5.980;2023-08-06T12:39:51;4.40;;;2.70;;
54823;SDS011;40724;53.196;5.980;2023-08-06T12:42:17;5.43;;;2.58;;
54823;SDS011;40724;53.196;5.980;2023-08-06T12:44:43;3.55;;;2.88;;
54823;SDS011;40724;53.196;5.980;2023-08-06T12:47:09;4.93;;;2.78;;
54823;SDS011;40724;53.196;5.980;2023-08-06T12:49:34;4.32;;;2.58;;
54823;SDS011;40724;53.196;5.980;2023-08-06T12:52:00;3.00;;;2.30;;
54823;SDS011;40724;53.196;5.980;2023-08-06T12:54:27;3.63;;;2.50;;
54823;SDS011;40724;53.196;5.980;2023-08-06T12:56:53;4.25;;;2.63;;
54823;SDS011;40724;53.196;5.980;2023-08-06T12:59:19;3.20;;;2.15;;
54823;SDS011;40724;53.196;5.980;2023-08-06T13:01:45;3.35;;;2.40;;
54823;SDS011;40724;53.196;5.980;2023-08-06T13:04:12;3.08;;;1.95;;
54823;SDS011;40724;53.196;5.980;2023-08-06T13:06:38;4.72;;;2.80;;
54823;SDS011;40724;53.196;5.980;2023-08-06T13:09:08;3.35;;;2.50;;
54823;SDS011;40724;53.196;5.980;2023-08-06T13:11:35;3.22;;;2.38;;
54823;SDS011;40724;53.196;5.980;2023-08-06T13:16:36;3.88;;;2.55;;
54823;SDS011;40724;53.196;5.980;2023-08-06T13:19:02;3.25;;;2.15;;
54823;SDS011;40724;53.196;5.980;2023-08-06T13:21:33;3.88;;;2.60;;
54823;SDS011;40724;53.196;5.980;2023-08-06T13:24:00;3.83;;;2.40;;
54823;SDS011;40724;53.196;5.980;2023-08-06T13:26:27;3.38;;;1.98;;
54823;SDS011;40724;53.196;5.980;2023-08-06T13:28:53;5.18;;;2.75;;
54823;SDS011;40724;53.196;5.980;2023-08-06T13:31:20;3.70;;;2.10;;
54823;SDS011;40724;53.196;5.980;2023-08-06T13:33:46;4.63;;;2.20;;
54823;SDS011;40724;53.196;5.980;2023-08-06T13:36:13;3.38;;;2.33;;
54823;SDS011;40724;53.196;5.980;2023-08-06T13:38:39;3.35;;;2.38;;
54823;SDS011;40724;53.196;5.980;2023-08-06T13:41:05;3.95;;;2.35;;
54823;SDS011;40724;53.196;5.980;2023-08-06T13:43:32;4.10;;;1.77;;
54823;SDS011;40724;53.196;5.980;2023-08-06T13:45:58;4.13;;;2.42;;
54823;SDS011;40724;53.196;5.980;2023-08-06T13:48:24;2.80;;;2.20;;
54823;SDS011;40724;53.196;5.980;2023-08-06T13:50:50;2.95;;;2.13;;
54823;SDS011;40724;53.196;5.980;2023-08-06T13:53:16;3.33;;;2.13;;
54823;SDS011;40724;53.196;5.980;2023-08-06T13:55:42;3.08;;;2.00;;
54823;SDS011;40724;53.196;5.980;2023-08-06T13:58:08;3.58;;;1.88;;
54823;SDS011;40724;53.196;5.980;2023-08-06T14:00:37;3.75;;;2.20;;
54823;SDS011;40724;53.196;5.980;2023-08-06T14:03:04;3.03;;;2.22;;
54823;SDS011;40724;53.196;5.980;2023-08-06T14:05:30;3.60;;;2.55;;
54823;SDS011;40724;53.196;5.980;2023-08-06T14:07:56;3.97;;;2.45;;
54823;SDS011;40724;53.196;5.980;2023-08-06T14:10:22;2.30;;;1.77;;
54823;SDS011;40724;53.196;5.980;2023-08-06T14:12:48;3.63;;;1.95;;
54823;SDS011;40724;53.196;5.980;2023-08-06T14:15:14;3.55;;;2.17;;
54823;SDS011;40724;53.196;5.980;2023-08-06T14:17:40;2.75;;;2.22;;
54823;SDS011;40724;53.196;5.980;2023-08-06T14:20:07;2.83;;;2.13;;
54823;SDS011;40724;53.196;5.980;2023-08-06T14:22:36;4.78;;;2.30;;
54823;SDS011;40724;53.196;5.980;2023-08-06T14:25:03;2.25;;;1.65;;
54823;SDS011;40724;53.196;5.980;2023-08-06T14:27:29;3.10;;;2.33;;
54823;SDS011;40724;53.196;5.980;2023-08-06T14:29:55;2.95;;;2.13;;
54823;SDS011;40724;53.196;5.980;2023-08-06T14:32:21;4.20;;;1.90;;
54823;SDS011;40724;53.196;5.980;2023-08-06T14:34:47;3.72;;;2.40;;
54823;SDS011;40724;53.196;5.980;2023-08-06T14:37:14;3.65;;;2.42;;
54823;SDS011;40724;53.196;5.980;2023-08-06T14:39:40;2.97;;;2.17;;
54823;SDS011;40724;53.196;5.980;2023-08-06T14:42:07;2.30;;;1.77;;
54823;SDS011;40724;53.196;5.980;2023-08-06T14:44:34;3.97;;;1.83;;
54823;SDS011;40724;53.196;5.980;2023-08-06T14:47:00;2.75;;;1.80;;
54823;SDS011;40724;53.196;5.980;2023-08-06T14:49:26;3.97;;;2.55;;
54823;SDS011;40724;53.196;5.980;2023-08-06T14:51:52;3.10;;;1.95;;
54823;SDS011;40724;53.196;5.980;2023-08-06T14:54:18;4.20;;;1.85;;
54823;SDS011;40724;53.196;5.980;2023-08-06T14:56:44;3.28;;;2.08;;
54823;SDS011;40724;53.196;5.980;2023-08-06T14:59:11;2.70;;;1.85;;
54823;SDS011;40724;53.196;5.980;2023-08-06T15:01:37;5.82;;;2.30;;
54823;SDS011;40724;53.196;5.980;2023-08-06T15:04:03;5.13;;;1.95;;